Accueil
METAR-TAF:

METAR-TAF

Aéroports :

Aérodrome de Guelmim

Guelmim, Maroc

latitude: 29-01-00N, longitude: 10-04-04W, altitude: 301 m

Observation

Le bulletin a été fait il y a 54 minutes, à 03:00 UTC
Vent 8 kt de ouest
Température 18°C
Humidité 88%
Pression 1011 hPa
Visibilité: 8000 m

METAR: GMAG 300300Z AUTO 27008KT 8000 18/16 Q1011

Heure: 04:54 (03:54 UTC)

Prévision

Le bulletin a été fait il y a 4 heures et 54 minutes, à 23:00 UTC
Prévision valable du 30 à 00 UTC au 31 à 06 UTC
Vent 9 kt de ouest
Visibilité: 8000 m

TAF: GMAG 292300Z 3000/3106 26009KT 8000 NSC

Observations et prévisions météorologiques de plus de 4000 aéroports (messages METAR et TAF).

Les stations disponibles sont représentées par des disques jaunes et rouges sur la carte.

Passer la souris dessus pour voir le nom de la station.

Cliquer dessus pour voir les observations et prévisions météorologiques.

Pour changer de carte: cliquez sur les boutons verts avec une croix noire pour zoomer, sur le bouton vert avec un tiret pour effectuer un zoom arrière, ou sur les flèches vertes pour les cartes adjacentes.


METAR-TAF: